Time;durP1;ratioP1;P1;durP2;ratioP2;P2;SDS_P1;SDS_P2;PMS_P1;PMS_P2;Temp;Humidity;BMP_temperature;BMP_pressure;BME280_temperature;BME280_humidity;BME280_pressure;Samples;Min_cycle;Max_cycle;Signal;HPM_P1;HPM_P2
2020/12/23 00:00:53;;;;;;;10.45;5.03;;;21.50;65.60;;;;;;5076646;28;20043;-51
2020/12/23 00:03:19;;;;;;;6.45;4.40;;;21.50;65.60;;;;;;5082512;28;20040;-54
2020/12/23 00:05:46;;;;;;;13.13;5.20;;;21.50;65.60;;;;;;5075678;28;20037;-50
2020/12/23 00:08:12;;;;;;;10.43;4.15;;;21.50;65.60;;;;;;5077042;28;20109;-52
2020/12/23 00:10:39;;;;;;;10.95;4.85;;;21.50;65.50;;;;;;5081181;28;20032;-51
2020/12/23 00:13:06;;;;;;;7.88;4.35;;;21.50;65.50;;;;;;5073364;28;20460;-58
2020/12/23 00:15:33;;;;;;;10.95;5.13;;;21.50;65.60;;;;;;5070266;28;20046;-49
2020/12/23 00:17:59;;;;;;;11.73;5.72;;;21.50;65.70;;;;;;5078309;28;20062;-50
2020/12/23 00:20:26;;;;;;;9.57;4.93;;;21.50;65.60;;;;;;5076259;28;20036;-48
2020/12/23 00:22:52;;;;;;;12.20;5.80;;;21.50;65.70;;;;;;5078950;28;20579;-49
2020/12/23 00:25:19;;;;;;;7.00;4.90;;;21.50;65.70;;;;;;5078014;28;20560;-51
2020/12/23 00:27:45;;;;;;;10.57;4.40;;;21.50;65.60;;;;;;5085326;28;20075;-51
2020/12/23 00:30:12;;;;;;;8.38;5.00;;;21.50;65.70;;;;;;5083883;28;20032;-52
2020/12/23 00:32:39;;;;;;;8.25;5.22;;;21.50;65.70;;;;;;5084827;28;20252;-50
2020/12/23 00:35:06;;;;;;;6.38;4.43;;;21.50;65.70;;;;;;5080330;28;20048;-52
2020/12/23 00:37:32;;;;;;;10.93;4.90;;;21.50;65.70;;;;;;5081583;28;20040;-52
2020/12/23 00:39:59;;;;;;;9.30;5.40;;;21.50;65.80;;;;;;5084917;28;20083;-50
2020/12/23 00:42:25;;;;;;;7.80;4.80;;;21.50;65.80;;;;;;5077764;28;20045;-48
2020/12/23 00:44:52;;;;;;;10.05;5.07;;;21.50;65.80;;;;;;5088633;28;20058;-52
2020/12/23 00:47:20;;;;;;;7.68;4.32;;;21.50;65.80;;;;;;5077069;28;20199;-51
2020/12/23 00:49:46;;;;;;;13.82;4.63;;;21.50;65.80;;;;;;5083987;28;20052;-51
2020/12/23 00:52:13;;;;;;;9.18;4.63;;;21.50;65.90;;;;;;5086102;28;20040;-49
2020/12/23 00:54:40;;;;;;;9.27;4.78;;;21.50;65.80;;;;;;5080058;28;20044;-51
2020/12/23 00:57:07;;;;;;;9.65;4.68;;;21.50;65.80;;;;;;5077532;28;20388;-49
2020/12/23 00:59:33;;;;;;;7.53;3.65;;;21.50;65.70;;;;;;5077027;28;20048;-47
2020/12/23 01:02:00;;;;;;;7.90;3.78;;;21.50;65.60;;;;;;5084549;28;20036;-51
2020/12/23 01:04:28;;;;;;;13.95;3.72;;;21.50;65.60;;;;;;5087853;28;20067;-50
2020/12/23 01:06:55;;;;;;;7.32;3.50;;;21.50;65.70;;;;;;5089664;28;20044;-51
2020/12/23 01:09:22;;;;;;;6.53;4.18;;;21.50;66.20;;;;;;5090283;28;20225;-53
2020/12/23 01:11:49;;;;;;;9.77;3.53;;;21.50;65.70;;;;;;5088458;28;20048;-50
2020/12/23 01:14:16;;;;;;;8.90;3.92;;;21.50;65.70;;;;;;5083327;28;20046;-48
2020/12/23 01:16:42;;;;;;;8.77;3.78;;;21.50;65.60;;;;;;5074756;28;20076;-51
2020/12/23 01:19:09;;;;;;;6.68;2.70;;;21.50;65.50;;;;;;5074705;28;20115;-49
2020/12/23 01:21:36;;;;;;;7.07;3.20;;;21.50;65.40;;;;;;5086255;28;20131;-48
2020/12/23 01:24:03;;;;;;;10.55;3.20;;;21.50;65.40;;;;;;5075461;28;20091;-52
2020/12/23 01:26:29;;;;;;;4.20;3.35;;;21.50;65.30;;;;;;5075537;28;20132;-52
2020/12/23 01:28:56;;;;;;;6.55;2.47;;;21.50;65.20;;;;;;5082466;28;20044;-51
2020/12/23 01:31:22;;;;;;;5.38;2.97;;;21.50;65.30;;;;;;5078291;28;20033;-52
2020/12/23 01:33:49;;;;;;;4.72;2.45;;;21.40;65.30;;;;;;5074970;28;20131;-52
2020/12/23 01:36:15;;;;;;;3.15;1.80;;;21.50;65.30;;;;;;5075983;28;20051;-49
2020/12/23 01:38:42;;;;;;;6.90;3.50;;;21.50;65.30;;;;;;5081435;28;20531;-51
2020/12/23 01:41:09;;;;;;;6.15;3.42;;;21.50;65.30;;;;;;5083171;28;20041;-50
2020/12/23 01:43:37;;;;;;;4.03;2.65;;;21.40;65.30;;;;;;5074609;28;20080;-48
2020/12/23 01:46:03;;;;;;;9.88;3.40;;;21.40;65.20;;;;;;5086613;28;20040;-49
2020/12/23 01:48:31;;;;;;;7.15;3.40;;;21.40;65.10;;;;;;5074768;28;20645;-48
2020/12/23 01:51:00;;;;;;;5.70;2.03;;;21.40;65.20;;;;;;5074669;28;20063;-52
2020/12/23 01:53:27;;;;;;;3.75;2.13;;;21.40;65.10;;;;;;5077376;28;20156;-48
2020/12/23 01:55:56;;;;;;;6.95;2.15;;;21.40;65.10;;;;;;5081431;28;20447;-52
2020/12/23 01:58:23;;;;;;;3.58;2.33;;;21.40;65.00;;;;;;5079782;28;20122;-50
2020/12/23 02:00:49;;;;;;;2.85;1.98;;;21.40;65.10;;;;;;5073384;28;20173;-51
2020/12/23 02:03:20;;;;;;;4.97;1.98;;;21.40;65.20;;;;;;5086763;28;20048;-50
2020/12/23 02:05:46;;;;;;;7.97;2.88;;;21.40;65.30;;;;;;5078437;28;20068;-47
2020/12/23 02:08:13;;;;;;;3.95;2.28;;;21.40;65.40;;;;;;5081967;28;20125;-50
2020/12/23 02:10:39;;;;;;;4.57;2.50;;;21.40;65.40;;;;;;5074649;28;20543;-49
2020/12/23 02:13:09;;;;;;;6.20;3.20;;;21.40;65.40;;;;;;5070717;28;20539;-52
2020/12/23 02:15:35;;;;;;;4.97;2.38;;;21.40;65.40;;;;;;5075215;28;20066;-49
2020/12/23 02:18:01;;;;;;;3.65;2.20;;;21.40;65.40;;;;;;5085376;28;20537;-50
2020/12/23 02:20:28;;;;;;;3.38;2.15;;;21.40;65.90;;;;;;5080039;28;20055;-51
2020/12/23 02:22:55;;;;;;;4.53;2.58;;;21.40;65.40;;;;;;5074374;28;20040;-48
2020/12/23 02:25:22;;;;;;;6.30;2.50;;;21.40;65.30;;;;;;5072110;28;20091;-51
2020/12/23 02:27:48;;;;;;;3.25;1.27;;;21.40;65.30;;;;;;5072479;28;20045;-49
2020/12/23 02:30:15;;;;;;;4.07;1.90;;;21.40;65.40;;;;;;5087884;28;20126;-48
2020/12/23 02:32:41;;;;;;;1.23;1.13;;;21.40;65.30;;;;;;5082058;28;20149;-50
2020/12/23 02:35:10;;;;;;;5.40;1.88;;;21.40;65.40;;;;;;5082149;28;20424;-52
2020/12/23 02:37:37;;;;;;;2.78;1.75;;;21.40;65.40;;;;;;5078348;28;20048;-49
2020/12/23 02:40:06;;;;;;;4.90;2.53;;;21.40;65.40;;;;;;5086334;28;20072;-48
2020/12/23 02:42:32;;;;;;;2.60;1.90;;;21.40;65.30;;;;;;5087813;28;20432;-49
2020/12/23 02:44:59;;;;;;;5.00;1.92;;;21.40;65.30;;;;;;5083287;28;20127;-52
2020/12/23 02:47:26;;;;;;;2.58;1.27;;;21.40;65.30;;;;;;5078403;28;20049;-48
2020/12/23 02:49:52;;;;;;;4.13;2.20;;;21.40;65.20;;;;;;5082130;28;20583;-53
2020/12/23 02:52:19;;;;;;;2.03;1.48;;;21.40;65.20;;;;;;5083386;28;20048;-50
2020/12/23 02:54:45;;;;;;;1.92;1.55;;;21.30;65.20;;;;;;5071524;28;20098;-49
2020/12/23 02:57:13;;;;;;;2.38;1.40;;;21.30;65.10;;;;;;5082802;28;20416;-52
2020/12/23 02:59:40;;;;;;;2.97;1.55;;;21.40;65.20;;;;;;5076746;28;20139;-51
2020/12/23 03:02:07;;;;;;;3.30;1.75;;;21.30;65.20;;;;;;5073195;28;20066;-49
2020/12/23 03:04:33;;;;;;;3.70;1.65;;;21.30;65.10;;;;;;5082603;28;20118;-53
2020/12/23 03:07:00;;;;;;;5.55;1.67;;;21.40;65.20;;;;;;5070502;28;20079;-49
2020/12/23 03:09:26;;;;;;;1.83;1.33;;;21.30;65.10;;;;;;5087832;28;20595;-50
2020/12/23 03:11:53;;;;;;;1.38;1.25;;;21.30;65.00;;;;;;5079339;28;20040;-56
2020/12/23 03:14:20;;;;;;;3.83;0.80;;;21.30;65.00;;;;;;5082931;28;20129;-49
2020/12/23 03:16:47;;;;;;;1.88;1.13;;;21.30;64.90;;;;;;5083362;28;20670;-49
2020/12/23 03:19:13;;;;;;;2.50;1.17;;;21.30;64.90;;;;;;5073589;28;20640;-51
2020/12/23 03:21:40;;;;;;;1.83;1.17;;;21.30;64.90;;;;;;5086127;28;20040;-50
2020/12/23 03:24:06;;;;;;;2.38;1.90;;;21.40;65.00;;;;;;5085401;28;20135;-48
2020/12/23 03:26:33;;;;;;;1.13;1.02;;;21.30;64.90;;;;;;5079256;28;20139;-52
2020/12/23 03:28:59;;;;;;;2.30;1.00;;;21.30;64.90;;;;;;5078310;28;20127;-52
2020/12/23 03:31:29;;;;;;;1.70;1.10;;;21.30;64.90;;;;;;5085267;28;20456;-52
2020/12/23 03:33:56;;;;;;;1.48;0.85;;;21.30;65.00;;;;;;5086307;28;20074;-51
2020/12/23 03:36:22;;;;;;;1.67;1.48;;;21.30;64.90;;;;;;5083996;28;20585;-50
2020/12/23 03:38:49;;;;;;;1.13;1.00;;;21.30;64.90;;;;;;5077236;28;20504;-50
2020/12/23 03:41:16;;;;;;;1.38;0.80;;;21.30;64.90;;;;;;5075361;28;20076;-48
2020/12/23 03:43:42;;;;;;;5.03;0.90;;;21.30;64.90;;;;;;5073442;28;20055;-51
2020/12/23 03:46:09;;;;;;;3.00;1.60;;;21.30;64.90;;;;;;5068759;28;20521;-48
2020/12/23 03:48:36;;;;;;;1.23;1.13;;;21.30;64.80;;;;;;5084901;28;20051;-49
2020/12/23 03:51:03;;;;;;;0.85;0.60;;;21.30;64.70;;;;;;5073538;28;20423;-48
2020/12/23 03:53:29;;;;;;;1.50;0.82;;;21.30;64.70;;;;;;5073552;28;20051;-51
2020/12/23 03:55:56;;;;;;;1.42;0.85;;;21.30;64.80;;;;;;5073627;28;20036;-52
2020/12/23 03:58:23;;;;;;;3.97;1.20;;;21.30;64.80;;;;;;5073096;28;20135;-55
2020/12/23 04:00:49;;;;;;;1.08;0.88;;;21.30;64.90;;;;;;5070670;28;20483;-50
2020/12/23 04:03:16;;;;;;;2.38;0.63;;;21.30;64.90;;;;;;5073355;28;20072;-49
2020/12/23 04:05:43;;;;;;;1.10;0.65;;;21.30;64.90;;;;;;5073110;28;20082;-52
2020/12/23 04:08:10;;;;;;;3.00;0.68;;;21.30;64.90;;;;;;5072968;28;20397;-50
2020/12/23 04:10:36;;;;;;;1.33;0.55;;;21.30;64.80;;;;;;5072436;28;20067;-48
2020/12/23 04:13:03;;;;;;;1.42;1.08;;;21.30;64.70;;;;;;5069491;28;20064;-51
2020/12/23 04:15:29;;;;;;;2.30;0.70;;;21.30;64.70;;;;;;5078261;28;20476;-50
2020/12/23 04:17:56;;;;;;;1.30;1.00;;;21.30;64.70;;;;;;5077713;28;20138;-50
2020/12/23 04:20:23;;;;;;;0.82;0.77;;;21.30;64.70;;;;;;5080032;28;20091;-48
2020/12/23 04:22:50;;;;;;;0.90;0.60;;;21.30;64.60;;;;;;5083333;28;20048;-48
2020/12/23 04:25:17;;;;;;;2.92;0.63;;;21.30;64.70;;;;;;5076974;28;20060;-50
2020/12/23 04:27:43;;;;;;;3.90;0.52;;;21.30;64.60;;;;;;5077569;28;20044;-50
2020/12/23 04:30:10;;;;;;;1.55;0.40;;;21.30;64.60;;;;;;5096084;28;20047;-49
2020/12/23 04:32:37;;;;;;;3.15;0.50;;;21.30;64.50;;;;;;5076572;28;20063;-48
2020/12/23 04:35:05;;;;;;;0.60;0.35;;;21.30;64.50;;;;;;5080852;28;20058;-49
2020/12/23 04:37:32;;;;;;;1.55;0.70;;;21.30;64.50;;;;;;5085949;28;20804;-50
2020/12/23 04:40:00;;;;;;;2.25;0.90;;;21.30;64.40;;;;;;5085134;28;20450;-51
2020/12/23 04:42:26;;;;;;;2.58;0.40;;;21.30;64.40;;;;;;5086169;28;20047;-51
2020/12/23 04:44:53;;;;;;;2.47;0.40;;;21.30;64.40;;;;;;5075237;28;20516;-51
2020/12/23 04:47:24;;;;;;;1.23;0.60;;;21.30;64.20;;;;;;5073384;28;20055;-48
2020/12/23 04:49:54;;;;;;;0.50;0.28;;;21.30;64.20;;;;;;5073408;28;20048;-49
2020/12/23 04:52:23;;;;;;;2.03;0.65;;;21.30;64.30;;;;;;5077159;28;20052;-51
2020/12/23 04:54:51;;;;;;;2.05;0.40;;;21.30;64.30;;;;;;5086089;28;20059;-50
2020/12/23 04:57:19;;;;;;;1.13;0.75;;;21.30;64.30;;;;;;5072462;28;20194;-51
2020/12/23 04:59:45;;;;;;;0.85;0.35;;;21.30;64.40;;;;;;5071887;28;20044;-48
2020/12/23 05:02:12;;;;;;;1.77;0.55;;;21.30;64.40;;;;;;5076302;28;20044;-51
2020/12/23 05:04:39;;;;;;;1.85;0.30;;;21.30;64.40;;;;;;5084140;28;20039;-48
2020/12/23 05:07:06;;;;;;;1.02;0.50;;;21.30;64.40;;;;;;5068297;28;20036;-51
2020/12/23 05:09:33;;;;;;;0.75;0.70;;;21.30;64.40;;;;;;5072245;28;20599;-51
2020/12/23 05:12:00;;;;;;;1.48;0.20;;;21.30;64.40;;;;;;5071831;28;20491;-52
2020/12/23 05:14:28;;;;;;;0.57;0.30;;;21.30;64.40;;;;;;5072678;28;20052;-51
2020/12/23 05:16:55;;;;;;;1.13;0.45;;;21.30;64.40;;;;;;5072556;28;20044;-50
2020/12/23 05:19:22;;;;;;;2.28;0.50;;;21.30;64.40;;;;;;5069525;28;20084;-51
2020/12/23 05:21:50;;;;;;;0.70;0.30;;;21.30;64.40;;;;;;5069647;28;20075;-51
2020/12/23 05:24:16;;;;;;;0.77;0.30;;;21.30;64.40;;;;;;5072546;28;20056;-48
2020/12/23 05:26:45;;;;;;;0.52;0.20;;;21.30;64.40;;;;;;5072090;28;20045;-54
2020/12/23 05:29:14;;;;;;;2.58;0.30;;;21.30;64.40;;;;;;5072487;28;20626;-52
2020/12/23 05:31:42;;;;;;;1.10;0.40;;;21.30;64.40;;;;;;5072033;28;20075;-51
2020/12/23 05:34:09;;;;;;;2.55;0.45;;;21.30;64.40;;;;;;5071129;28;20048;-53
2020/12/23 05:36:37;;;;;;;0.40;0.38;;;21.30;64.40;;;;;;5075563;28;20051;-50
2020/12/23 05:39:06;;;;;;;2.97;0.20;;;21.30;64.30;;;;;;5089318;28;20169;-48
2020/12/23 05:41:34;;;;;;;1.05;0.40;;;21.30;64.20;;;;;;5079772;28;20056;-51
2020/12/23 05:44:01;;;;;;;0.50;0.30;;;21.30;64.20;;;;;;5075605;28;20079;-48
2020/12/23 05:46:28;;;;;;;0.20;0.20;;;21.30;64.10;;;;;;5073854;28;20165;-50
2020/12/23 05:48:55;;;;;;;0.70;0.40;;;21.20;64.10;;;;;;5073386;28;20136;-49
2020/12/23 05:51:21;;;;;;;0.95;0.32;;;21.30;64.10;;;;;;5075748;28;20066;-49
2020/12/23 05:53:48;;;;;;;0.90;0.20;;;21.30;64.10;;;;;;5075830;28;20060;-49
2020/12/23 05:56:15;;;;;;;1.88;0.20;;;21.30;64.20;;;;;;5077013;28;20507;-48
2020/12/23 05:58:41;;;;;;;0.50;0.20;;;21.30;64.10;;;;;;5075714;28;20063;-48
2020/12/23 06:01:09;;;;;;;0.77;0.30;;;21.30;64.10;;;;;;5069945;28;20113;-48
2020/12/23 06:03:51;;;;;;;10.25;0.50;;;21.20;64.00;;;;;;5088125;28;20094;-48
2020/12/23 06:06:22;;;;;;;1.40;0.30;;;21.30;64.10;;;;;;5092120;28;20825;-50
2020/12/23 06:08:52;;;;;;;0.63;0.30;;;21.20;64.10;;;;;;5089081;28;20059;-49
2020/12/23 06:11:36;;;;;;;1.83;0.17;;;21.20;64.10;;;;;;5083935;28;20052;-52
2020/12/23 06:14:24;;;;;;;0.63;0.20;;;21.30;64.10;;;;;;5086805;28;20618;-51
2020/12/23 06:17:03;;;;;;;0.85;0.20;;;21.30;64.10;;;;;;5090552;28;20042;-51
2020/12/23 06:19:36;;;;;;;0.38;0.20;;;21.20;64.20;;;;;;5083985;28;20098;-51
2020/12/23 06:22:05;;;;;;;0.45;0.45;;;21.20;64.20;;;;;;5081279;28;20459;-54
2020/12/23 06:24:33;;;;;;;0.45;0.40;;;21.20;64.20;;;;;;5083901;28;20067;-49
2020/12/23 06:27:00;;;;;;;0.80;0.10;;;21.20;64.70;;;;;;5089295;28;20603;-49
2020/12/23 06:29:29;;;;;;;0.82;0.20;;;21.30;64.30;;;;;;5083469;28;20055;-52
2020/12/23 06:31:59;;;;;;;0.65;0.65;;;21.20;64.20;;;;;;5084184;28;20048;-54
2020/12/23 06:34:28;;;;;;;1.38;0.32;;;21.20;64.30;;;;;;5087000;28;20135;-54
2020/12/23 06:36:56;;;;;;;1.27;0.30;;;21.20;64.40;;;;;;5082855;28;20127;-50
2020/12/23 06:39:42;;;;;;;1.83;0.20;;;21.30;64.50;;;;;;5087577;28;20139;-55
2020/12/23 06:42:37;;;;;;;4.65;0.30;;;21.20;64.40;;;;;;5078931;28;20048;-53
2020/12/23 06:45:08;;;;;;;0.95;0.38;;;21.20;64.40;;;;;;5082362;28;20674;-56
2020/12/23 06:47:37;;;;;;;0.85;0.10;;;21.20;64.60;;;;;;5079245;28;20127;-55
2020/12/23 06:50:06;;;;;;;1.05;0.30;;;21.20;64.60;;;;;;5078879;28;20079;-54
2020/12/23 06:52:38;;;;;;;1.90;0.20;;;21.20;64.60;;;;;;5079078;28;20143;-57
2020/12/23 06:55:07;;;;;;;2.75;0.28;;;21.20;64.60;;;;;;5077788;28;20051;-52
2020/12/23 06:57:56;;;;;;;2.20;0.52;;;21.20;64.60;;;;;;5078833;28;20068;-55
2020/12/23 07:00:38;;;;;;;1.45;0.25;;;21.20;64.50;;;;;;5081787;28;20048;-57
2020/12/23 07:03:07;;;;;;;1.33;0.98;;;21.20;64.60;;;;;;5079461;28;20450;-54
2020/12/23 07:05:42;;;;;;;0.43;0.25;;;21.20;64.70;;;;;;5081809;28;20040;-54
2020/12/23 07:08:10;;;;;;;0.40;0.20;;;21.20;64.70;;;;;;5084305;28;20044;-54
2020/12/23 07:10:40;;;;;;;2.75;0.30;;;21.20;64.60;;;;;;5087431;28;20530;-55
2020/12/23 07:13:08;;;;;;;1.05;0.30;;;21.20;64.60;;;;;;5087410;28;20041;-53
2020/12/23 07:15:36;;;;;;;0.38;0.38;;;21.20;64.60;;;;;;5087651;28;20036;-55
2020/12/23 07:18:06;;;;;;;1.98;0.20;;;21.20;64.70;;;;;;5085113;28;20098;-58
2020/12/23 07:20:41;;;;;;;0.45;0.25;;;21.20;64.70;;;;;;5085227;28;20132;-58
2020/12/23 07:23:10;;;;;;;6.72;0.28;;;21.20;64.60;;;;;;5100187;28;20090;-53
2020/12/23 07:25:45;;;;;;;1.90;0.30;;;21.20;64.60;;;;;;5087498;28;20043;-54
2020/12/23 07:28:12;;;;;;;0.30;0.30;;;21.20;64.60;;;;;;5091486;28;20063;-55
2020/12/23 07:30:41;;;;;;;0.95;0.10;;;21.20;64.60;;;;;;5089385;28;20055;-57
2020/12/23 07:33:12;;;;;;;1.35;0.20;;;21.20;64.60;;;;;;5093983;28;20055;-55
2020/12/23 07:35:39;;;;;;;3.67;0.38;;;21.20;64.60;;;;;;5086169;28;20051;-56
2020/12/23 07:38:08;;;;;;;2.58;0.30;;;21.20;64.60;;;;;;5087055;28;20457;-55
2020/12/23 07:40:36;;;;;;;0.32;0.22;;;21.20;65.20;;;;;;5089699;28;20055;-54
2020/12/23 07:43:05;;;;;;;0.98;0.35;;;21.20;64.70;;;;;;5086191;28;20036;-54
2020/12/23 07:45:33;;;;;;;1.05;0.68;;;21.20;64.70;;;;;;5089950;28;20138;-55
2020/12/23 07:48:01;;;;;;;1.73;0.22;;;21.20;64.60;;;;;;5087703;28;20430;-56
2020/12/23 07:50:30;;;;;;;3.72;0.60;;;21.20;64.60;;;;;;5083970;28;20035;-54
2020/12/23 07:52:57;;;;;;;1.48;0.30;;;21.20;64.70;;;;;;5084568;28;20404;-55
2020/12/23 07:55:25;;;;;;;1.05;0.28;;;21.20;64.60;;;;;;5089515;28;20111;-54
2020/12/23 07:57:53;;;;;;;0.35;0.30;;;21.20;64.60;;;;;;5099837;28;20044;-55
2020/12/23 08:00:22;;;;;;;0.57;0.20;;;21.20;64.60;;;;;;5089979;28;20422;-54
2020/12/23 08:02:52;;;;;;;2.47;0.38;;;21.20;64.60;;;;;;5091429;28;20736;-53
2020/12/23 08:05:19;;;;;;;3.20;0.52;;;21.20;64.60;;;;;;5095057;28;20044;-54
2020/12/23 08:07:45;;;;;;;0.40;0.40;;;21.20;64.60;;;;;;5087422;28;20514;-54
2020/12/23 08:10:14;;;;;;;1.95;0.63;;;21.20;64.60;;;;;;5097041;28;20056;-55
2020/12/23 08:12:44;;;;;;;4.03;0.60;;;21.20;64.50;;;;;;5072206;28;20053;-56
2020/12/23 08:15:14;;;;;;;1.42;0.20;;;21.20;64.60;;;;;;5072491;28;20198;-51
2020/12/23 08:17:42;;;;;;;1.77;0.75;;;21.30;64.70;;;;;;5073136;28;20462;-51
2020/12/23 08:20:11;;;;;;;0.70;0.40;;;21.20;64.60;;;;;;5072901;28;20032;-56
2020/12/23 08:22:39;;;;;;;0.40;0.40;;;21.20;64.70;;;;;;5071701;28;20056;-53
2020/12/23 08:25:08;;;;;;;1.20;0.52;;;21.20;64.70;;;;;;5070005;28;20447;-54
2020/12/23 08:27:36;;;;;;;1.75;0.60;;;21.20;64.80;;;;;;5087908;28;20048;-55
2020/12/23 08:30:06;;;;;;;0.60;0.57;;;21.20;64.80;;;;;;5073325;28;20816;-53
2020/12/23 08:32:42;;;;;;;3.38;0.65;;;21.20;64.90;;;;;;5083553;28;20056;-55
2020/12/23 08:35:10;;;;;;;1.52;0.90;;;21.20;65.00;;;;;;5081042;28;20558;-53
2020/12/23 08:37:37;;;;;;;1.60;0.60;;;21.20;65.00;;;;;;5087771;28;20078;-55
2020/12/23 08:40:06;;;;;;;0.95;0.65;;;21.30;65.00;;;;;;5084291;28;20436;-54
2020/12/23 08:42:33;;;;;;;1.10;0.57;;;21.20;65.00;;;;;;5085760;28;20101;-57
2020/12/23 08:44:59;;;;;;;2.65;0.57;;;21.20;65.00;;;;;;5076587;28;20040;-53
2020/12/23 08:47:30;;;;;;;2.67;1.58;;;21.20;64.90;;;;;;5085010;28;20591;-55
2020/12/23 08:49:57;;;;;;;1.20;0.80;;;21.30;65.00;;;;;;5084893;28;20075;-56
2020/12/23 08:52:25;;;;;;;0.73;0.70;;;21.30;64.90;;;;;;5085238;28;20086;-56
2020/12/23 08:54:53;;;;;;;1.30;0.45;;;21.30;64.80;;;;;;5089088;28;20044;-57
2020/12/23 08:57:25;;;;;;;1.27;0.40;;;21.30;64.90;;;;;;5085100;28;20539;-56
2020/12/23 08:59:52;;;;;;;3.95;0.82;;;21.30;64.80;;;;;;5084942;28;20036;-51
2020/12/23 09:02:19;;;;;;;0.40;0.40;;;21.30;64.80;;;;;;5082769;28;20048;-53
2020/12/23 09:04:45;;;;;;;1.05;0.60;;;21.30;64.70;;;;;;5096514;28;20047;-54
2020/12/23 09:07:20;;;;;;;3.85;0.25;;;21.30;64.60;;;;;;5089587;28;20040;-53
2020/12/23 09:09:48;;;;;;;0.98;0.93;;;21.30;64.60;;;;;;5085697;28;20527;-53
2020/12/23 09:12:24;;;;;;;1.75;0.50;;;21.30;64.50;;;;;;5087273;28;20059;-54
2020/12/23 09:14:50;;;;;;;2.72;0.90;;;21.30;64.40;;;;;;5082140;28;20082;-52
2020/12/23 09:17:22;;;;;;;1.38;0.98;;;21.30;64.40;;;;;;5088983;28;20119;-51
2020/12/23 09:19:51;;;;;;;3.80;1.13;;;21.30;64.40;;;;;;5081626;28;20048;-52
2020/12/23 09:22:40;;;;;;;5.07;0.38;;;21.30;64.30;;;;;;5081008;28;20044;-52
2020/12/23 09:25:22;;;;;;;2.33;0.50;;;21.30;64.20;;;;;;5081267;28;20052;-54
2020/12/23 09:27:50;;;;;;;5.25;1.50;;;21.30;64.30;;;;;;5084775;28;20057;-51
2020/12/23 09:30:31;;;;;;;7.18;1.48;;;21.20;64.40;;;;;;5084546;28;20075;-53
2020/12/23 09:32:58;;;;;;;8.55;2.28;;;21.30;64.50;;;;;;5073499;28;20560;-50
2020/12/23 09:35:26;;;;;;;14.63;1.27;;;21.20;64.50;;;;;;5075632;28;20048;-50
